createdAt,value
2018-09-12T00:00:37.206Z,17.50
2018-09-12T00:03:05.410Z,17.20
2018-09-12T00:05:33.475Z,17.20
2018-09-12T00:08:01.588Z,17.30
2018-09-12T00:10:29.642Z,17.30
2018-09-12T00:12:57.687Z,17.30
2018-09-12T00:15:25.740Z,17.20
2018-09-12T00:17:53.926Z,17.20
2018-09-12T00:20:22.001Z,17.00
2018-09-12T00:22:50.044Z,17.00
2018-09-12T00:25:18.089Z,17.10
2018-09-12T00:27:46.138Z,17.10
2018-09-12T00:30:14.205Z,17.20
2018-09-12T00:32:42.330Z,17.30
2018-09-12T00:35:10.403Z,17.40
2018-09-12T00:37:38.461Z,17.10
2018-09-12T00:40:06.547Z,17.00
2018-09-12T00:42:34.769Z,17.10
2018-09-12T00:45:03.011Z,17.00
2018-09-12T00:47:31.062Z,16.90
2018-09-12T00:49:59.222Z,16.90
2018-09-12T00:52:27.297Z,17.00
2018-09-12T00:54:55.341Z,17.20
2018-09-12T00:57:24.101Z,17.10
2018-09-12T00:59:52.495Z,17.20
2018-09-12T01:02:20.541Z,17.20
2018-09-12T01:04:48.581Z,17.20
2018-09-12T01:07:16.623Z,17.10
2018-09-12T01:09:44.671Z,17.10
2018-09-12T01:12:12.745Z,17.00
2018-09-12T01:14:40.803Z,17.10
2018-09-12T01:17:09.357Z,17.10
2018-09-12T01:19:37.410Z,17.00
2018-09-12T01:22:05.459Z,16.80
2018-09-12T01:24:33.751Z,16.90
2018-09-12T01:27:01.841Z,16.90
2018-09-12T01:29:29.914Z,16.90
2018-09-12T01:31:57.958Z,16.80
2018-09-12T01:34:26.001Z,16.80
2018-09-12T01:36:54.029Z,16.90
2018-09-12T01:39:22.089Z,17.00
2018-09-12T01:41:50.199Z,16.90
2018-09-12T01:44:18.266Z,16.90
2018-09-12T01:46:46.334Z,16.90
2018-09-12T01:49:18.358Z,16.80
2018-09-12T01:51:47.660Z,16.70
2018-09-12T01:54:16.134Z,16.70
2018-09-12T01:56:44.326Z,16.80
2018-09-12T01:59:12.909Z,16.70
2018-09-12T02:01:41.219Z,16.60
2018-09-12T02:04:09.312Z,16.70
2018-09-12T02:06:37.364Z,16.60
2018-09-12T02:09:08.175Z,16.50
2018-09-12T02:11:36.350Z,16.60
2018-09-12T02:14:04.407Z,16.60
2018-09-12T02:16:32.562Z,16.80
2018-09-12T02:19:00.777Z,16.90
2018-09-12T02:21:28.878Z,16.80
2018-09-12T02:23:56.925Z,16.60
2018-09-12T02:26:25.004Z,16.60
2018-09-12T02:28:53.061Z,16.60
2018-09-12T02:31:21.105Z,16.60
2018-09-12T02:33:49.161Z,16.60
2018-09-12T02:36:22.642Z,16.60
2018-09-12T02:38:50.687Z,16.60
2018-09-12T02:41:18.770Z,16.70
2018-09-12T02:43:46.966Z,16.60
2018-09-12T02:46:15.063Z,16.50
2018-09-12T02:48:44.080Z,16.20
2018-09-12T02:51:12.106Z,16.10
2018-09-12T02:53:40.481Z,16.00
2018-09-12T02:56:08.722Z,16.10
2018-09-12T02:58:36.759Z,16.00
2018-09-12T03:01:04.799Z,16.00
2018-09-12T03:03:32.845Z,16.00
2018-09-12T03:06:00.898Z,16.10
2018-09-12T03:08:28.945Z,16.10
2018-09-12T03:10:57.146Z,16.10
2018-09-12T03:13:25.181Z,16.10
2018-09-12T03:15:53.217Z,16.20
2018-09-12T03:18:21.305Z,16.10
2018-09-12T03:20:49.534Z,16.00
2018-09-12T03:23:17.387Z,16.00
2018-09-12T03:25:45.450Z,16.20
2018-09-12T03:28:13.506Z,16.10
2018-09-12T03:30:41.548Z,16.10
2018-09-12T03:33:09.581Z,16.10
2018-09-12T03:35:37.613Z,16.00
2018-09-12T03:38:05.657Z,16.00
2018-09-12T03:40:34.349Z,16.10
2018-09-12T03:43:02.399Z,16.10
2018-09-12T03:45:30.434Z,16.10
2018-09-12T03:47:58.600Z,16.10
2018-09-12T03:50:26.549Z,16.10
2018-09-12T03:52:54.591Z,16.20
2018-09-12T03:55:22.642Z,16.20
2018-09-12T03:57:50.684Z,16.20
2018-09-12T04:00:18.732Z,16.30
2018-09-12T04:02:46.893Z,16.30
2018-09-12T04:05:14.841Z,16.20
2018-09-12T04:07:43.081Z,16.20
2018-09-12T04:10:11.953Z,16.20
2018-09-12T04:12:40.005Z,16.30
2018-09-12T04:15:08.046Z,16.30
2018-09-12T04:17:37.053Z,16.20
2018-09-12T04:20:05.278Z,16.30
2018-09-12T04:22:33.965Z,16.30
2018-09-12T04:25:02.014Z,16.30
2018-09-12T04:27:30.066Z,16.30
2018-09-12T04:29:58.118Z,16.20
2018-09-12T04:32:26.698Z,16.30
2018-09-12T04:34:54.866Z,16.20
2018-09-12T04:37:23.024Z,16.20
2018-09-12T04:39:51.077Z,16.10
2018-09-12T04:42:19.125Z,16.10
2018-09-12T04:44:47.453Z,16.10
2018-09-12T04:47:15.722Z,16.00
2018-09-12T04:49:43.794Z,15.90
2018-09-12T04:52:11.960Z,15.80
2018-09-12T04:54:40.002Z,16.00
2018-09-12T04:57:09.108Z,15.90
2018-09-12T04:59:37.177Z,15.90
2018-09-12T05:02:05.177Z,15.80
2018-09-12T05:04:33.221Z,15.90
2018-09-12T05:07:01.286Z,15.90
2018-09-12T05:09:29.331Z,15.80
2018-09-12T05:11:57.417Z,15.60
2018-09-12T05:14:25.478Z,15.50
2018-09-12T05:16:53.547Z,15.50
2018-09-12T05:19:21.602Z,15.60
2018-09-12T05:21:49.651Z,15.50
2018-09-12T05:24:17.705Z,15.50
2018-09-12T05:26:45.754Z,15.60
2018-09-12T05:29:13.806Z,15.60
2018-09-12T05:31:42.112Z,15.50
2018-09-12T05:34:10.193Z,15.50
2018-09-12T05:36:38.235Z,15.50
2018-09-12T05:39:08.744Z,15.60
2018-09-12T05:41:36.805Z,15.60
2018-09-12T05:44:05.060Z,15.60
2018-09-12T05:46:33.107Z,15.50
2018-09-12T05:49:01.201Z,15.70
2018-09-12T05:51:29.362Z,15.70
2018-09-12T05:53:57.420Z,15.70
2018-09-12T05:56:25.610Z,15.80
2018-09-12T05:58:53.913Z,15.60
2018-09-12T06:01:21.964Z,15.60
2018-09-12T06:03:50.023Z,15.70
2018-09-12T06:06:18.152Z,15.50
2018-09-12T06:08:46.191Z,15.50
2018-09-12T06:11:14.817Z,15.50
2018-09-12T06:13:42.896Z,15.50
2018-09-12T06:16:10.934Z,15.60
2018-09-12T06:18:38.998Z,15.60
2018-09-12T06:21:07.082Z,15.60
2018-09-12T06:23:35.117Z,15.60
2018-09-12T06:26:03.181Z,15.60
2018-09-12T06:28:31.286Z,15.60
2018-09-12T06:30:59.417Z,15.50
2018-09-12T06:33:27.475Z,15.50
2018-09-12T06:35:55.544Z,15.40
2018-09-12T06:38:23.627Z,15.50
2018-09-12T06:40:51.666Z,15.70
2018-09-12T06:43:19.797Z,15.70
2018-09-12T06:45:47.880Z,15.70
2018-09-12T06:48:16.101Z,15.70
2018-09-12T06:50:44.154Z,15.70
2018-09-12T06:53:12.314Z,15.70
2018-09-12T06:55:40.363Z,15.70
2018-09-12T06:58:08.442Z,15.70
2018-09-12T07:00:36.517Z,15.70
2018-09-12T07:03:04.628Z,15.60
2018-09-12T07:05:32.733Z,15.60
2018-09-12T07:08:00.890Z,15.60
2018-09-12T07:10:28.994Z,15.60
2018-09-12T07:12:57.065Z,15.70
2018-09-12T07:15:25.119Z,15.70
2018-09-12T07:17:53.381Z,15.80
2018-09-12T07:20:21.429Z,15.70
2018-09-12T07:22:49.469Z,15.70
2018-09-12T07:25:17.858Z,15.80
2018-09-12T07:27:45.910Z,15.80
2018-09-12T07:30:13.970Z,15.80
2018-09-12T07:32:42.039Z,15.70
2018-09-12T07:35:10.199Z,15.80
2018-09-12T07:37:38.394Z,15.80
2018-09-12T07:40:06.462Z,15.90
2018-09-12T07:42:34.542Z,15.80
2018-09-12T07:45:02.690Z,15.70
2018-09-12T07:47:30.757Z,15.60
2018-09-12T07:49:58.882Z,15.70
2018-09-12T07:52:27.059Z,15.70
2018-09-12T07:54:55.161Z,15.70
2018-09-12T07:57:23.442Z,15.80
2018-09-12T07:59:51.501Z,15.80
2018-09-12T08:02:19.567Z,15.70
2018-09-12T08:04:47.589Z,15.60
2018-09-12T08:07:15.689Z,15.60
2018-09-12T08:09:43.726Z,15.70
2018-09-12T08:12:12.186Z,15.60
2018-09-12T08:14:40.228Z,15.60
2018-09-12T08:17:08.388Z,15.60
2018-09-12T08:19:36.424Z,15.60
2018-09-12T08:22:04.475Z,15.70
2018-09-12T08:24:32.517Z,15.80
2018-09-12T08:27:00.624Z,15.80
2018-09-12T08:29:28.668Z,15.80
2018-09-12T08:31:56.728Z,15.70
2018-09-12T08:34:24.758Z,15.70
2018-09-12T08:36:52.947Z,15.80
2018-09-12T08:39:21.064Z,15.90
2018-09-12T08:41:49.262Z,15.90
2018-09-12T08:44:17.322Z,16.00
2018-09-12T08:46:45.390Z,16.10
2018-09-12T08:49:13.442Z,16.20
2018-09-12T08:51:41.836Z,16.10
2018-09-12T08:54:09.898Z,16.10
2018-09-12T08:56:38.015Z,16.20
2018-09-12T08:59:06.035Z,16.20
2018-09-12T09:01:34.250Z,16.30
2018-09-12T09:04:02.353Z,16.40
2018-09-12T09:06:30.359Z,16.50
2018-09-12T09:08:58.410Z,16.50
2018-09-12T09:11:26.457Z,16.40
2018-09-12T09:13:54.626Z,16.10
2018-09-12T09:16:22.701Z,16.10
2018-09-12T09:18:50.754Z,16.20
2018-09-12T09:21:18.808Z,16.30
2018-09-12T09:23:47.076Z,16.40
2018-09-12T09:26:15.064Z,16.40
2018-09-12T09:28:43.146Z,16.30
2018-09-12T09:31:11.201Z,16.00
2018-09-12T09:33:39.241Z,16.20
2018-09-12T09:36:07.300Z,16.30
2018-09-12T09:38:35.362Z,16.40
2018-09-12T09:41:03.471Z,16.40
2018-09-12T09:43:31.471Z,16.50
2018-09-12T09:45:59.535Z,16.50
2018-09-12T09:48:27.681Z,16.20
2018-09-12T09:50:55.650Z,16.20
2018-09-12T09:53:23.701Z,16.40
2018-09-12T09:55:51.745Z,16.40
2018-09-12T09:58:19.809Z,16.30
2018-09-12T10:00:53.359Z,16.30
2018-09-12T10:03:26.735Z,16.40
2018-09-12T10:06:00.292Z,16.40
2018-09-12T10:08:35.385Z,16.40
2018-09-12T10:11:03.437Z,16.50
2018-09-12T10:13:31.501Z,16.50
2018-09-12T10:15:59.550Z,16.40
2018-09-12T10:18:27.618Z,16.50
2018-09-12T10:20:55.666Z,16.50
2018-09-12T10:23:24.398Z,16.50
2018-09-12T10:25:53.070Z,16.20
2018-09-12T10:28:21.393Z,16.20
2018-09-12T10:30:49.638Z,16.00
2018-09-12T10:33:18.017Z,15.80
2018-09-12T10:35:46.086Z,15.60
2018-09-12T10:38:14.137Z,15.40
2018-09-12T10:40:42.430Z,15.40
2018-09-12T10:43:10.608Z,15.40
2018-09-12T10:45:38.690Z,15.40
2018-09-12T10:48:06.841Z,15.50
2018-09-12T10:50:34.930Z,15.50
2018-09-12T10:53:03.058Z,15.50
2018-09-12T10:55:31.093Z,15.40
2018-09-12T10:57:59.150Z,15.60
2018-09-12T11:00:27.338Z,15.40
2018-09-12T11:02:55.427Z,15.20
2018-09-12T11:05:23.485Z,15.40
2018-09-12T11:07:51.636Z,15.60
2018-09-12T11:10:19.694Z,15.60
2018-09-12T11:12:47.759Z,15.70
2018-09-12T11:15:15.964Z,15.70
2018-09-12T11:17:44.007Z,15.60
2018-09-12T11:20:12.093Z,15.60
2018-09-12T11:22:40.161Z,15.70
2018-09-12T11:25:08.217Z,15.90
2018-09-12T11:27:36.293Z,16.00
2018-09-12T11:30:04.502Z,16.00
2018-09-12T11:32:32.601Z,16.20
2018-09-12T11:35:00.640Z,16.20
2018-09-12T11:37:28.699Z,16.30
2018-09-12T11:39:56.801Z,16.30
2018-09-12T11:42:24.820Z,16.30
2018-09-12T11:44:52.949Z,16.20
2018-09-12T11:47:21.233Z,16.30
2018-09-12T11:49:49.301Z,16.30
2018-09-12T11:52:17.371Z,16.20
2018-09-12T11:54:45.485Z,16.40
2018-09-12T11:57:13.573Z,16.50
2018-09-12T11:59:41.721Z,16.60
2018-09-12T12:02:09.786Z,16.70
2018-09-12T12:04:37.857Z,16.60
2018-09-12T12:07:05.907Z,16.40
2018-09-12T12:09:33.964Z,16.50
2018-09-12T12:12:02.278Z,16.40
2018-09-12T12:14:30.330Z,16.40
2018-09-12T12:16:58.532Z,16.40
2018-09-12T12:19:26.557Z,16.40
2018-09-12T12:21:55.479Z,16.40
2018-09-12T12:24:23.603Z,16.50
2018-09-12T12:26:51.700Z,16.50
2018-09-12T12:29:19.862Z,16.50
2018-09-12T12:31:47.903Z,16.60
2018-09-12T12:34:15.958Z,16.60
2018-09-12T12:36:44.002Z,16.60
2018-09-12T12:39:12.393Z,16.50
2018-09-12T12:41:40.462Z,16.50
2018-09-12T12:44:08.558Z,16.40
2018-09-12T12:46:36.675Z,16.40
2018-09-12T12:49:04.694Z,16.40
2018-09-12T12:51:32.801Z,16.30
2018-09-12T12:54:01.220Z,16.30
2018-09-12T12:56:29.261Z,16.30
2018-09-12T12:58:57.322Z,16.30
2018-09-12T13:01:25.361Z,16.20
2018-09-12T13:03:53.417Z,16.10
2018-09-12T13:06:21.462Z,15.90
2018-09-12T13:08:49.534Z,15.90
2018-09-12T13:11:17.599Z,15.80
2018-09-12T13:13:45.637Z,15.80
2018-09-12T13:16:14.129Z,15.70
2018-09-12T13:18:42.182Z,15.60
2018-09-12T13:21:10.240Z,15.50
2018-09-12T13:23:38.277Z,15.50
2018-09-12T13:26:06.692Z,15.40
2018-09-12T13:28:34.776Z,15.30
2018-09-12T13:31:03.038Z,15.10
2018-09-12T13:33:31.094Z,15.20
2018-09-12T13:35:59.148Z,15.20
2018-09-12T13:38:27.190Z,15.10
2018-09-12T13:40:55.250Z,15.20
2018-09-12T13:43:23.282Z,15.20
2018-09-12T13:45:51.332Z,15.20
2018-09-12T13:48:19.386Z,15.30
2018-09-12T13:50:47.430Z,15.30
2018-09-12T13:53:15.492Z,15.40
2018-09-12T13:55:43.744Z,15.20
2018-09-12T13:58:11.782Z,14.90
2018-09-12T14:00:39.863Z,14.80
2018-09-12T14:03:07.947Z,14.80
2018-09-12T14:05:35.950Z,14.80
2018-09-12T14:08:04.019Z,14.90
2018-09-12T14:10:32.115Z,14.90
2018-09-12T14:13:00.151Z,14.90
2018-09-12T14:15:28.238Z,15.10
2018-09-12T14:17:56.285Z,15.10
2018-09-12T14:20:24.335Z,15.30
2018-09-12T14:22:52.517Z,15.40
2018-09-12T14:25:20.533Z,15.30
2018-09-12T14:27:48.606Z,15.30
2018-09-12T14:30:16.694Z,15.30
2018-09-12T14:32:44.756Z,15.50
2018-09-12T14:35:13.422Z,15.40
2018-09-12T14:37:41.469Z,15.30
2018-09-12T14:40:09.602Z,15.30
2018-09-12T14:42:37.661Z,15.40
2018-09-12T14:45:06.404Z,15.60
2018-09-12T14:47:35.462Z,15.60
2018-09-12T14:50:03.558Z,15.70
2018-09-12T14:52:31.633Z,15.90
2018-09-12T14:54:59.708Z,15.90
2018-09-12T14:57:27.798Z,16.00
2018-09-12T14:59:55.837Z,15.90
2018-09-12T15:02:23.885Z,15.80
2018-09-12T15:04:52.064Z,15.90
2018-09-12T15:07:19.991Z,15.90
2018-09-12T15:09:48.050Z,16.00
2018-09-12T15:12:16.089Z,15.90
2018-09-12T15:14:44.150Z,15.90
2018-09-12T15:17:12.324Z,15.90
2018-09-12T15:19:40.370Z,15.70
2018-09-12T15:22:08.437Z,15.90
2018-09-12T15:24:36.497Z,15.80
2018-09-12T15:27:04.616Z,15.90
2018-09-12T15:29:33.154Z,16.00
2018-09-12T15:32:01.218Z,16.10
2018-09-12T15:34:29.342Z,16.00
2018-09-12T15:36:57.438Z,15.90
2018-09-12T15:39:25.535Z,15.80
2018-09-12T15:41:53.633Z,15.90
2018-09-12T15:44:21.666Z,15.80
2018-09-12T15:46:49.726Z,15.90
2018-09-12T15:49:17.779Z,15.90
2018-09-12T15:51:45.827Z,16.10
2018-09-12T15:54:14.386Z,16.10
2018-09-12T15:56:42.522Z,16.10
2018-09-12T15:59:10.565Z,16.00
2018-09-12T16:01:38.661Z,16.00
2018-09-12T16:04:06.770Z,15.90
2018-09-12T16:06:34.830Z,15.80
2018-09-12T16:09:02.885Z,15.70
2018-09-12T16:11:30.939Z,15.70
2018-09-12T16:13:58.984Z,15.80
2018-09-12T16:16:27.041Z,15.80
2018-09-12T16:18:55.107Z,15.90
2018-09-12T16:21:23.162Z,15.90
2018-09-12T16:23:51.216Z,16.00
2018-09-12T16:26:19.502Z,15.90
2018-09-12T16:28:47.566Z,15.90
2018-09-12T16:31:15.689Z,15.80
2018-09-12T16:33:43.733Z,15.70
2018-09-12T16:36:11.814Z,15.60
2018-09-12T16:38:39.860Z,15.70
2018-09-12T16:41:07.961Z,15.70
2018-09-12T16:43:35.978Z,15.60
2018-09-12T16:46:04.085Z,15.80
2018-09-12T16:48:32.148Z,15.70
2018-09-12T16:51:00.248Z,15.50
2018-09-12T16:53:28.361Z,15.40
2018-09-12T16:55:57.039Z,15.40
2018-09-12T16:58:25.166Z,15.40
2018-09-12T17:00:53.462Z,15.40
2018-09-12T17:03:21.766Z,15.40
2018-09-12T17:05:49.921Z,15.30
2018-09-12T17:08:18.233Z,15.10
2018-09-12T17:10:46.795Z,15.10
2018-09-12T17:13:14.886Z,15.20
2018-09-12T17:15:43.014Z,15.20
2018-09-12T17:18:11.068Z,15.30
2018-09-12T17:20:39.278Z,15.20
2018-09-12T17:23:07.456Z,15.20
2018-09-12T17:25:35.794Z,15.30
2018-09-12T17:28:04.003Z,15.40
2018-09-12T17:30:33.161Z,15.30
2018-09-12T17:33:01.421Z,15.30
2018-09-12T17:35:29.812Z,15.30
2018-09-12T17:37:58.105Z,15.30
2018-09-12T17:40:26.682Z,15.30
2018-09-12T17:42:54.961Z,15.40
2018-09-12T17:45:23.435Z,15.30
2018-09-12T17:47:51.494Z,15.30
2018-09-12T17:50:19.570Z,15.30
2018-09-12T17:52:47.637Z,15.20
2018-09-12T17:55:15.704Z,15.20
2018-09-12T17:57:43.761Z,15.20
2018-09-12T18:00:11.870Z,15.30
2018-09-12T18:02:40.054Z,15.30
2018-09-12T18:05:08.102Z,15.30
2018-09-12T18:07:36.236Z,15.40
2018-09-12T18:10:04.312Z,15.20
2018-09-12T18:12:32.409Z,15.20
2018-09-12T18:15:00.708Z,15.30
2018-09-12T18:17:28.804Z,15.20
2018-09-12T18:19:56.821Z,15.30
2018-09-12T18:22:24.882Z,15.30
2018-09-12T18:24:53.125Z,15.30
2018-09-12T18:27:21.350Z,15.30
2018-09-12T18:29:49.458Z,15.30
2018-09-12T18:32:17.519Z,15.30
2018-09-12T18:34:45.594Z,15.20
2018-09-12T18:37:13.718Z,15.30
2018-09-12T18:39:41.793Z,15.20
2018-09-12T18:42:09.882Z,15.30
2018-09-12T18:44:37.951Z,15.30
2018-09-12T18:47:06.098Z,15.30
2018-09-12T18:49:34.171Z,15.30
2018-09-12T18:52:02.266Z,15.30
2018-09-12T18:54:30.320Z,15.30
2018-09-12T18:56:58.419Z,15.20
2018-09-12T18:59:26.507Z,15.20
2018-09-12T19:01:54.875Z,15.20
2018-09-12T19:04:23.526Z,15.20
2018-09-12T19:06:51.934Z,15.10
2018-09-12T19:09:19.946Z,15.10
2018-09-12T19:11:48.017Z,15.20
2018-09-12T19:14:16.431Z,15.20
2018-09-12T19:16:44.490Z,15.20
2018-09-12T19:19:12.617Z,15.10
2018-09-12T19:21:40.699Z,15.10
2018-09-12T19:24:08.832Z,15.10
2018-09-12T19:26:36.990Z,15.10
2018-09-12T19:29:05.052Z,15.10
2018-09-12T19:31:33.110Z,15.10
2018-09-12T19:34:01.386Z,15.00
2018-09-12T19:36:29.450Z,15.00
2018-09-12T19:38:57.583Z,15.00
2018-09-12T19:41:25.776Z,15.00
2018-09-12T19:43:53.806Z,15.00
2018-09-12T19:46:22.226Z,15.00
2018-09-12T19:48:50.387Z,15.00
2018-09-12T19:51:18.467Z,15.10
2018-09-12T19:53:46.711Z,15.10
2018-09-12T19:56:15.381Z,15.00
2018-09-12T19:58:44.259Z,15.10
2018-09-12T20:01:12.403Z,15.10
2018-09-12T20:03:40.506Z,15.10
2018-09-12T20:06:08.541Z,15.00
2018-09-12T20:08:36.663Z,15.00
2018-09-12T20:11:04.878Z,15.00
2018-09-12T20:13:32.917Z,15.10
2018-09-12T20:16:00.988Z,15.00
2018-09-12T20:18:29.232Z,15.00
2018-09-12T20:20:57.310Z,15.00
2018-09-12T20:23:25.404Z,14.90
2018-09-12T20:25:54.087Z,15.00
2018-09-12T20:28:22.142Z,14.90
2018-09-12T20:30:50.197Z,14.90
2018-09-12T20:33:18.257Z,14.90
2018-09-12T20:35:46.357Z,14.80
2018-09-12T20:38:14.781Z,14.70
2018-09-12T20:40:42.846Z,14.80
2018-09-12T20:43:10.893Z,14.80
2018-09-12T20:45:38.958Z,14.70
2018-09-12T20:48:07.032Z,14.80
2018-09-12T20:50:35.824Z,14.70
2018-09-12T20:53:03.974Z,14.70
2018-09-12T20:55:32.775Z,14.70
2018-09-12T20:58:00.845Z,14.70
2018-09-12T21:00:29.016Z,14.70
2018-09-12T21:02:57.144Z,14.70
2018-09-12T21:05:25.211Z,14.80
2018-09-12T21:07:53.266Z,14.80
2018-09-12T21:10:21.328Z,14.70
2018-09-12T21:12:49.406Z,14.70
2018-09-12T21:15:17.481Z,14.60
2018-09-12T21:17:45.764Z,14.60
2018-09-12T21:20:14.447Z,14.60
2018-09-12T21:22:42.706Z,14.60
2018-09-12T21:25:10.778Z,14.50
2018-09-12T21:27:38.820Z,14.50
2018-09-12T21:30:07.173Z,14.50
2018-09-12T21:32:35.349Z,14.50
2018-09-12T21:35:03.422Z,14.50
2018-09-12T21:37:31.481Z,14.60
2018-09-12T21:39:59.541Z,14.60
2018-09-12T21:42:27.585Z,14.70
2018-09-12T21:44:55.713Z,14.60
2018-09-12T21:47:23.833Z,14.70
2018-09-12T21:49:51.934Z,14.60
2018-09-12T21:52:20.059Z,14.60
2018-09-12T21:54:48.117Z,14.50
2018-09-12T21:57:16.233Z,14.50
2018-09-12T21:59:44.293Z,14.50
2018-09-12T22:02:12.439Z,14.50
2018-09-12T22:04:40.505Z,14.50
2018-09-12T22:07:08.647Z,14.50
2018-09-12T22:09:36.719Z,14.50
2018-09-12T22:12:04.761Z,14.50
2018-09-12T22:14:32.835Z,14.50
2018-09-12T22:17:00.889Z,14.50
2018-09-12T22:19:28.973Z,14.50
2018-09-12T22:21:57.042Z,14.50
2018-09-12T22:24:25.091Z,14.50
2018-09-12T22:26:53.152Z,14.60
2018-09-12T22:29:21.210Z,14.60
2018-09-12T22:31:49.368Z,14.60
2018-09-12T22:34:17.425Z,14.50
2018-09-12T22:36:45.482Z,14.50
2018-09-12T22:39:13.550Z,14.50
2018-09-12T22:41:41.634Z,14.50
2018-09-12T22:44:09.706Z,14.50
2018-09-12T22:46:37.796Z,14.40
2018-09-12T22:49:05.841Z,14.40
2018-09-12T22:51:34.114Z,14.40
2018-09-12T22:54:02.166Z,14.40
2018-09-12T22:56:30.252Z,14.40
2018-09-12T22:58:58.299Z,14.40
2018-09-12T23:01:26.330Z,14.50
2018-09-12T23:03:54.505Z,14.50
2018-09-12T23:06:22.578Z,14.40
2018-09-12T23:08:50.648Z,14.50
2018-09-12T23:11:18.781Z,14.40
2018-09-12T23:13:46.930Z,14.40
2018-09-12T23:16:15.025Z,14.40
2018-09-12T23:18:43.070Z,14.40
2018-09-12T23:21:11.154Z,14.40
2018-09-12T23:23:39.393Z,14.40
2018-09-12T23:26:07.434Z,14.40
2018-09-12T23:28:35.513Z,14.50
2018-09-12T23:31:03.577Z,14.40
2018-09-12T23:33:31.649Z,14.50
2018-09-12T23:35:59.712Z,14.50
2018-09-12T23:38:27.769Z,14.50
2018-09-12T23:40:55.819Z,14.50
2018-09-12T23:43:23.868Z,14.50
2018-09-12T23:45:51.989Z,14.50
2018-09-12T23:48:20.124Z,14.50
2018-09-12T23:50:48.157Z,14.50
2018-09-12T23:53:16.230Z,14.40
2018-09-12T23:55:44.269Z,14.50
2018-09-12T23:58:12.393Z,14.40
